sensor_id;sensor_type;location;lat;lon;timestamp;P1;durP1;ratioP1;P2;durP2;ratioP2
64917;SDS011;52176;44.858;38.372;2023-02-12T00:02:23;10.63;;;5.30;;
64917;SDS011;52176;44.858;38.372;2023-02-12T00:04:49;22.63;;;9.95;;
64917;SDS011;52176;44.858;38.372;2023-02-12T00:07:15;13.18;;;7.57;;
64917;SDS011;52176;44.858;38.372;2023-02-12T00:09:41;17.02;;;8.05;;
64917;SDS011;52176;44.858;38.372;2023-02-12T00:12:07;10.23;;;5.95;;
64917;SDS011;52176;44.858;38.372;2023-02-12T00:14:33;14.80;;;7.28;;
64917;SDS011;52176;44.858;38.372;2023-02-12T00:16:59;15.45;;;10.20;;
64917;SDS011;52176;44.858;38.372;2023-02-12T00:19:25;10.55;;;5.80;;
64917;SDS011;52176;44.858;38.372;2023-02-12T00:21:51;13.02;;;8.93;;
64917;SDS011;52176;44.858;38.372;2023-02-12T00:24:17;7.90;;;3.58;;
64917;SDS011;52176;44.858;38.372;2023-02-12T00:26:43;9.20;;;6.20;;
64917;SDS011;52176;44.858;38.372;2023-02-12T00:29:09;10.55;;;6.38;;
64917;SDS011;52176;44.858;38.372;2023-02-12T00:31:35;11.30;;;6.82;;
64917;SDS011;52176;44.858;38.372;2023-02-12T00:34:01;12.25;;;6.32;;
64917;SDS011;52176;44.858;38.372;2023-02-12T00:36:28;13.75;;;7.00;;
64917;SDS011;52176;44.858;38.372;2023-02-12T00:38:55;14.98;;;6.43;;
64917;SDS011;52176;44.858;38.372;2023-02-12T00:41:23;12.40;;;7.25;;
64917;SDS011;52176;44.858;38.372;2023-02-12T00:43:50;12.32;;;7.85;;
64917;SDS011;52176;44.858;38.372;2023-02-12T00:46:16;15.65;;;9.40;;
64917;SDS011;52176;44.858;38.372;2023-02-12T00:48:43;19.75;;;10.52;;
64917;SDS011;52176;44.858;38.372;2023-02-12T00:51:09;19.63;;;9.65;;
64917;SDS011;52176;44.858;38.372;2023-02-12T00:53:35;19.15;;;9.35;;
64917;SDS011;52176;44.858;38.372;2023-02-12T00:56:02;18.92;;;8.30;;
64917;SDS011;52176;44.858;38.372;2023-02-12T00:58:28;19.02;;;8.02;;
64917;SDS011;52176;44.858;38.372;2023-02-12T01:00:55;16.45;;;8.63;;
64917;SDS011;52176;44.858;38.372;2023-02-12T01:03:21;12.05;;;6.65;;
64917;SDS011;52176;44.858;38.372;2023-02-12T01:05:48;14.77;;;7.82;;
64917;SDS011;52176;44.858;38.372;2023-02-12T01:08:14;17.27;;;8.88;;
64917;SDS011;52176;44.858;38.372;2023-02-12T01:10:41;19.88;;;10.18;;
64917;SDS011;52176;44.858;38.372;2023-02-12T01:13:10;12.55;;;8.02;;
64917;SDS011;52176;44.858;38.372;2023-02-12T01:15:38;26.38;;;11.18;;
64917;SDS011;52176;44.858;38.372;2023-02-12T01:18:04;16.92;;;8.95;;
64917;SDS011;52176;44.858;38.372;2023-02-12T01:20:30;19.88;;;9.80;;
64917;SDS011;52176;44.858;38.372;2023-02-12T01:22:56;21.77;;;9.50;;
64917;SDS011;52176;44.858;38.372;2023-02-12T01:25:22;19.52;;;11.27;;
64917;SDS011;52176;44.858;38.372;2023-02-12T01:27:48;21.27;;;10.48;;
64917;SDS011;52176;44.858;38.372;2023-02-12T01:30:18;19.75;;;9.45;;
64917;SDS011;52176;44.858;38.372;2023-02-12T01:32:46;10.50;;;6.15;;
64917;SDS011;52176;44.858;38.372;2023-02-12T01:35:12;13.45;;;6.40;;
64917;SDS011;52176;44.858;38.372;2023-02-12T01:37:39;11.63;;;6.25;;
64917;SDS011;52176;44.858;38.372;2023-02-12T01:40:06;8.57;;;4.95;;
64917;SDS011;52176;44.858;38.372;2023-02-12T01:42:33;8.13;;;5.18;;
64917;SDS011;52176;44.858;38.372;2023-02-12T01:47:39;9.95;;;6.22;;
64917;SDS011;52176;44.858;38.372;2023-02-12T01:50:07;14.07;;;7.50;;
64917;SDS011;52176;44.858;38.372;2023-02-12T01:52:35;18.00;;;9.32;;
64917;SDS011;52176;44.858;38.372;2023-02-12T01:55:04;13.07;;;8.02;;
64917;SDS011;52176;44.858;38.372;2023-02-12T01:57:34;14.13;;;7.57;;
64917;SDS011;52176;44.858;38.372;2023-02-12T02:00:05;11.68;;;7.28;;
64917;SDS011;52176;44.858;38.372;2023-02-12T02:02:39;13.10;;;7.82;;
64917;SDS011;52176;44.858;38.372;2023-02-12T02:05:07;17.13;;;8.25;;
64917;SDS011;52176;44.858;38.372;2023-02-12T02:07:34;13.68;;;7.32;;
64917;SDS011;52176;44.858;38.372;2023-02-12T02:10:00;13.45;;;7.70;;
64917;SDS011;52176;44.858;38.372;2023-02-12T02:12:27;9.82;;;4.72;;
64917;SDS011;52176;44.858;38.372;2023-02-12T02:15:26;5.82;;;3.25;;
64917;SDS011;52176;44.858;38.372;2023-02-12T02:17:57;7.72;;;3.78;;
64917;SDS011;52176;44.858;38.372;2023-02-12T02:31:52;12.23;;;6.22;;
64917;SDS011;52176;44.858;38.372;2023-02-12T02:34:32;11.13;;;4.75;;
64917;SDS011;52176;44.858;38.372;2023-02-12T02:37:17;5.72;;;3.55;;
64917;SDS011;52176;44.858;38.372;2023-02-12T02:39:51;8.55;;;3.85;;
64917;SDS011;52176;44.858;38.372;2023-02-12T02:42:32;12.35;;;6.80;;
64917;SDS011;52176;44.858;38.372;2023-02-12T02:47:37;8.88;;;5.78;;
64917;SDS011;52176;44.858;38.372;2023-02-12T02:50:12;6.20;;;4.25;;
64917;SDS011;52176;44.858;38.372;2023-02-12T02:53:05;11.85;;;7.32;;
64917;SDS011;52176;44.858;38.372;2023-02-12T02:55:37;15.25;;;7.55;;
64917;SDS011;52176;44.858;38.372;2023-02-12T02:58:09;11.18;;;6.55;;
64917;SDS011;52176;44.858;38.372;2023-02-12T03:00:43;9.93;;;5.32;;
64917;SDS011;52176;44.858;38.372;2023-02-12T03:03:18;8.35;;;5.25;;
64917;SDS011;52176;44.858;38.372;2023-02-12T03:06:12;9.17;;;4.53;;
64917;SDS011;52176;44.858;38.372;2023-02-12T03:09:01;3.75;;;2.67;;
64917;SDS011;52176;44.858;38.372;2023-02-12T03:11:34;4.38;;;2.88;;
64917;SDS011;52176;44.858;38.372;2023-02-12T03:14:07;5.03;;;2.90;;
64917;SDS011;52176;44.858;38.372;2023-02-12T03:16:59;3.97;;;2.30;;
64917;SDS011;52176;44.858;38.372;2023-02-12T03:19:41;4.60;;;2.72;;
64917;SDS011;52176;44.858;38.372;2023-02-12T03:22:32;3.33;;;2.15;;
64917;SDS011;52176;44.858;38.372;2023-02-12T03:27:32;5.20;;;3.30;;
64917;SDS011;52176;44.858;38.372;2023-02-12T03:30:04;4.10;;;3.23;;
64917;SDS011;52176;44.858;38.372;2023-02-12T03:37:56;5.75;;;3.00;;
64917;SDS011;52176;44.858;38.372;2023-02-12T03:40:27;13.90;;;5.93;;
64917;SDS011;52176;44.858;38.372;2023-02-12T03:45:37;10.45;;;5.18;;
64917;SDS011;52176;44.858;38.372;2023-02-12T03:48:33;6.13;;;3.63;;
64917;SDS011;52176;44.858;38.372;2023-02-12T03:54:03;6.70;;;4.65;;
64917;SDS011;52176;44.858;38.372;2023-02-12T03:59:17;5.45;;;3.55;;
64917;SDS011;52176;44.858;38.372;2023-02-12T04:01:45;5.05;;;4.03;;
64917;SDS011;52176;44.858;38.372;2023-02-12T04:04:13;10.40;;;6.72;;
64917;SDS011;52176;44.858;38.372;2023-02-12T04:06:39;7.30;;;4.90;;
64917;SDS011;52176;44.858;38.372;2023-02-12T04:09:06;13.45;;;7.50;;
64917;SDS011;52176;44.858;38.372;2023-02-12T04:17:13;10.90;;;6.15;;
64917;SDS011;52176;44.858;38.372;2023-02-12T04:28:11;5.40;;;2.92;;
64917;SDS011;52176;44.858;38.372;2023-02-12T04:33:50;4.10;;;2.65;;
64917;SDS011;52176;44.858;38.372;2023-02-12T04:36:30;3.28;;;2.53;;
64917;SDS011;52176;44.858;38.372;2023-02-12T04:39:06;3.90;;;2.20;;
64917;SDS011;52176;44.858;38.372;2023-02-12T04:41:36;2.35;;;1.95;;
64917;SDS011;52176;44.858;38.372;2023-02-12T04:44:17;2.40;;;2.05;;
64917;SDS011;52176;44.858;38.372;2023-02-12T04:46:46;4.57;;;2.80;;
64917;SDS011;52176;44.858;38.372;2023-02-12T04:49:14;5.97;;;1.95;;
64917;SDS011;52176;44.858;38.372;2023-02-12T04:51:42;3.63;;;2.42;;
64917;SDS011;52176;44.858;38.372;2023-02-12T04:54:08;3.67;;;2.70;;
64917;SDS011;52176;44.858;38.372;2023-02-12T04:56:34;2.72;;;2.15;;
64917;SDS011;52176;44.858;38.372;2023-02-12T04:59:00;5.68;;;2.33;;
64917;SDS011;52176;44.858;38.372;2023-02-12T05:01:26;3.33;;;2.47;;
64917;SDS011;52176;44.858;38.372;2023-02-12T05:03:53;3.90;;;2.35;;
64917;SDS011;52176;44.858;38.372;2023-02-12T05:06:19;4.78;;;2.05;;
64917;SDS011;52176;44.858;38.372;2023-02-12T05:08:45;7.25;;;2.88;;
64917;SDS011;52176;44.858;38.372;2023-02-12T05:11:11;7.20;;;3.92;;
64917;SDS011;52176;44.858;38.372;2023-02-12T05:13:37;6.40;;;3.58;;
64917;SDS011;52176;44.858;38.372;2023-02-12T05:16:06;6.35;;;3.60;;
64917;SDS011;52176;44.858;38.372;2023-02-12T05:18:33;4.18;;;2.30;;
64917;SDS011;52176;44.858;38.372;2023-02-12T05:21:00;3.42;;;2.55;;
64917;SDS011;52176;44.858;38.372;2023-02-12T05:23:29;4.05;;;2.83;;
64917;SDS011;52176;44.858;38.372;2023-02-12T05:25:58;5.53;;;3.40;;
64917;SDS011;52176;44.858;38.372;2023-02-12T05:28:25;3.25;;;2.08;;
64917;SDS011;52176;44.858;38.372;2023-02-12T05:30:52;3.05;;;1.92;;
64917;SDS011;52176;44.858;38.372;2023-02-12T05:33:18;2.70;;;2.22;;
64917;SDS011;52176;44.858;38.372;2023-02-12T05:35:44;1.75;;;1.55;;
64917;SDS011;52176;44.858;38.372;2023-02-12T05:38:09;2.40;;;1.70;;
64917;SDS011;52176;44.858;38.372;2023-02-12T05:40:35;4.68;;;2.25;;
64917;SDS011;52176;44.858;38.372;2023-02-12T05:43:02;6.00;;;2.95;;
64917;SDS011;52176;44.858;38.372;2023-02-12T05:45:28;6.03;;;3.28;;
64917;SDS011;52176;44.858;38.372;2023-02-12T05:47:54;5.32;;;2.75;;
64917;SDS011;52176;44.858;38.372;2023-02-12T05:50:20;5.32;;;2.55;;
64917;SDS011;52176;44.858;38.372;2023-02-12T05:52:58;8.70;;;4.70;;
64917;SDS011;52176;44.858;38.372;2023-02-12T05:55:25;6.45;;;4.18;;
64917;SDS011;52176;44.858;38.372;2023-02-12T05:57:51;5.55;;;2.97;;
64917;SDS011;52176;44.858;38.372;2023-02-12T06:00:17;7.30;;;4.38;;
64917;SDS011;52176;44.858;38.372;2023-02-12T06:02:43;5.70;;;3.10;;
64917;SDS011;52176;44.858;38.372;2023-02-12T06:05:09;5.57;;;2.80;;
64917;SDS011;52176;44.858;38.372;2023-02-12T06:07:35;3.47;;;2.28;;
64917;SDS011;52176;44.858;38.372;2023-02-12T06:10:01;2.17;;;1.60;;
64917;SDS011;52176;44.858;38.372;2023-02-12T06:12:28;3.15;;;2.20;;
64917;SDS011;52176;44.858;38.372;2023-02-12T06:14:54;4.53;;;2.72;;
64917;SDS011;52176;44.858;38.372;2023-02-12T06:17:20;3.47;;;2.63;;
64917;SDS011;52176;44.858;38.372;2023-02-12T06:19:46;4.68;;;2.97;;
64917;SDS011;52176;44.858;38.372;2023-02-12T06:22:12;2.83;;;2.20;;
64917;SDS011;52176;44.858;38.372;2023-02-12T06:24:38;3.55;;;2.25;;
64917;SDS011;52176;44.858;38.372;2023-02-12T06:27:04;3.63;;;1.52;;
64917;SDS011;52176;44.858;38.372;2023-02-12T06:29:29;4.85;;;1.95;;
64917;SDS011;52176;44.858;38.372;2023-02-12T06:31:56;2.55;;;1.75;;
64917;SDS011;52176;44.858;38.372;2023-02-12T06:34:22;3.35;;;1.75;;
64917;SDS011;52176;44.858;38.372;2023-02-12T06:36:48;4.70;;;2.30;;
64917;SDS011;52176;44.858;38.372;2023-02-12T06:39:14;3.33;;;2.10;;
64917;SDS011;52176;44.858;38.372;2023-02-12T06:41:41;2.47;;;1.70;;
64917;SDS011;52176;44.858;38.372;2023-02-12T06:44:08;2.70;;;2.10;;
64917;SDS011;52176;44.858;38.372;2023-02-12T06:46:35;2.95;;;1.75;;
64917;SDS011;52176;44.858;38.372;2023-02-12T06:49:02;2.63;;;1.98;;
64917;SDS011;52176;44.858;38.372;2023-02-12T06:51:28;5.53;;;2.47;;
64917;SDS011;52176;44.858;38.372;2023-02-12T06:53:55;3.50;;;2.58;;
64917;SDS011;52176;44.858;38.372;2023-02-12T06:56:24;5.47;;;3.38;;
64917;SDS011;52176;44.858;38.372;2023-02-12T06:58:52;7.55;;;3.22;;
64917;SDS011;52176;44.858;38.372;2023-02-12T07:01:25;6.63;;;3.42;;
64917;SDS011;52176;44.858;38.372;2023-02-12T07:03:54;8.32;;;4.28;;
64917;SDS011;52176;44.858;38.372;2023-02-12T07:06:22;9.43;;;4.32;;
64917;SDS011;52176;44.858;38.372;2023-02-12T07:08:49;10.93;;;5.38;;
64917;SDS011;52176;44.858;38.372;2023-02-12T07:11:15;6.88;;;3.83;;
64917;SDS011;52176;44.858;38.372;2023-02-12T07:13:42;6.38;;;3.47;;
64917;SDS011;52176;44.858;38.372;2023-02-12T07:16:11;3.85;;;2.47;;
64917;SDS011;52176;44.858;38.372;2023-02-12T07:18:38;6.30;;;2.13;;
64917;SDS011;52176;44.858;38.372;2023-02-12T07:21:05;2.90;;;1.77;;
64917;SDS011;52176;44.858;38.372;2023-02-12T07:23:33;2.25;;;1.85;;
64917;SDS011;52176;44.858;38.372;2023-02-12T07:26:00;2.22;;;1.90;;
64917;SDS011;52176;44.858;38.372;2023-02-12T07:28:28;3.80;;;2.60;;
64917;SDS011;52176;44.858;38.372;2023-02-12T07:30:58;4.70;;;2.10;;
64917;SDS011;52176;44.858;38.372;2023-02-12T07:33:24;3.65;;;2.08;;
64917;SDS011;52176;44.858;38.372;2023-02-12T07:35:50;3.35;;;1.90;;
64917;SDS011;52176;44.858;38.372;2023-02-12T07:38:16;2.63;;;1.98;;
64917;SDS011;52176;44.858;38.372;2023-02-12T07:40:42;3.17;;;2.10;;
64917;SDS011;52176;44.858;38.372;2023-02-12T07:43:08;3.60;;;2.03;;
64917;SDS011;52176;44.858;38.372;2023-02-12T07:45:34;2.55;;;1.77;;
64917;SDS011;52176;44.858;38.372;2023-02-12T07:48:00;3.10;;;2.17;;
64917;SDS011;52176;44.858;38.372;2023-02-12T07:50:26;3.42;;;2.13;;
64917;SDS011;52176;44.858;38.372;2023-02-12T07:52:52;3.17;;;2.00;;
64917;SDS011;52176;44.858;38.372;2023-02-12T07:55:18;2.85;;;1.80;;
64917;SDS011;52176;44.858;38.372;2023-02-12T07:57:44;2.38;;;1.75;;
64917;SDS011;52176;44.858;38.372;2023-02-12T08:00:11;3.78;;;1.52;;
64917;SDS011;52176;44.858;38.372;2023-02-12T08:02:39;2.65;;;2.05;;
64917;SDS011;52176;44.858;38.372;2023-02-12T08:05:06;2.45;;;1.70;;
64917;SDS011;52176;44.858;38.372;2023-02-12T08:07:32;3.60;;;2.00;;
64917;SDS011;52176;44.858;38.372;2023-02-12T08:09:58;2.17;;;1.58;;
64917;SDS011;52176;44.858;38.372;2023-02-12T08:12:24;4.88;;;1.90;;
64917;SDS011;52176;44.858;38.372;2023-02-12T08:14:50;3.88;;;2.17;;
64917;SDS011;52176;44.858;38.372;2023-02-12T08:17:16;2.97;;;1.63;;
64917;SDS011;52176;44.858;38.372;2023-02-12T08:19:42;2.25;;;1.77;;
64917;SDS011;52176;44.858;38.372;2023-02-12T08:22:08;4.15;;;2.15;;
64917;SDS011;52176;44.858;38.372;2023-02-12T08:24:34;5.18;;;2.20;;
64917;SDS011;52176;44.858;38.372;2023-02-12T08:27:00;5.22;;;1.92;;
64917;SDS011;52176;44.858;38.372;2023-02-12T08:29:28;2.40;;;1.73;;
64917;SDS011;52176;44.858;38.372;2023-02-12T08:31:56;3.65;;;2.00;;
64917;SDS011;52176;44.858;38.372;2023-02-12T08:34:24;4.82;;;1.98;;
64917;SDS011;52176;44.858;38.372;2023-02-12T08:36:52;2.50;;;1.70;;
64917;SDS011;52176;44.858;38.372;2023-02-12T08:39:20;3.88;;;1.70;;
64917;SDS011;52176;44.858;38.372;2023-02-12T08:41:47;3.00;;;1.70;;
64917;SDS011;52176;44.858;38.372;2023-02-12T08:44:14;6.25;;;2.00;;
64917;SDS011;52176;44.858;38.372;2023-02-12T08:46:47;2.72;;;1.80;;
64917;SDS011;52176;44.858;38.372;2023-02-12T08:49:16;3.15;;;2.10;;
64917;SDS011;52176;44.858;38.372;2023-02-12T08:51:45;5.15;;;2.30;;
64917;SDS011;52176;44.858;38.372;2023-02-12T08:54:14;3.47;;;1.73;;
64917;SDS011;52176;44.858;38.372;2023-02-12T08:56:42;2.80;;;1.90;;
64917;SDS011;52176;44.858;38.372;2023-02-12T08:59:10;2.47;;;1.65;;
64917;SDS011;52176;44.858;38.372;2023-02-12T09:01:36;3.78;;;1.90;;
64917;SDS011;52176;44.858;38.372;2023-02-12T09:04:05;2.30;;;1.55;;
64917;SDS011;52176;44.858;38.372;2023-02-12T09:06:32;3.60;;;1.50;;
64917;SDS011;52176;44.858;38.372;2023-02-12T09:08:59;3.67;;;1.73;;
64917;SDS011;52176;44.858;38.372;2023-02-12T09:11:27;4.30;;;1.80;;
64917;SDS011;52176;44.858;38.372;2023-02-12T09:13:58;1.67;;;1.35;;
64917;SDS011;52176;44.858;38.372;2023-02-12T09:16:25;7.65;;;1.60;;
64917;SDS011;52176;44.858;38.372;2023-02-12T09:18:52;2.47;;;1.80;;
64917;SDS011;52176;44.858;38.372;2023-02-12T09:21:19;2.70;;;1.67;;
64917;SDS011;52176;44.858;38.372;2023-02-12T09:23:45;2.25;;;1.50;;
64917;SDS011;52176;44.858;38.372;2023-02-12T09:26:13;4.20;;;1.58;;
64917;SDS011;52176;44.858;38.372;2023-02-12T09:28:40;2.38;;;1.50;;
64917;SDS011;52176;44.858;38.372;2023-02-12T09:31:17;5.82;;;1.65;;
64917;SDS011;52176;44.858;38.372;2023-02-12T09:33:47;1.75;;;1.20;;
64917;SDS011;52176;44.858;38.372;2023-02-12T09:36:14;2.03;;;1.40;;
64917;SDS011;52176;44.858;38.372;2023-02-12T09:38:41;5.00;;;1.70;;
64917;SDS011;52176;44.858;38.372;2023-02-12T09:46:47;4.40;;;1.67;;
64917;SDS011;52176;44.858;38.372;2023-02-12T09:51:50;2.35;;;1.30;;
64917;SDS011;52176;44.858;38.372;2023-02-12T09:54:22;2.72;;;1.40;;
64917;SDS011;52176;44.858;38.372;2023-02-12T09:56:54;2.15;;;1.40;;
64917;SDS011;52176;44.858;38.372;2023-02-12T09:59:34;2.50;;;1.50;;
64917;SDS011;52176;44.858;38.372;2023-02-12T10:02:15;6.07;;;1.60;;
64917;SDS011;52176;44.858;38.372;2023-02-12T10:04:42;1.67;;;1.10;;
64917;SDS011;52176;44.858;38.372;2023-02-12T10:07:18;7.03;;;1.70;;
64917;SDS011;52176;44.858;38.372;2023-02-12T10:15:25;3.85;;;1.55;;
64917;SDS011;52176;44.858;38.372;2023-02-12T10:26:30;4.45;;;1.88;;
64917;SDS011;52176;44.858;38.372;2023-02-12T10:29:11;2.28;;;1.70;;
64917;SDS011;52176;44.858;38.372;2023-02-12T10:31:43;7.00;;;1.60;;
64917;SDS011;52176;44.858;38.372;2023-02-12T10:34:20;2.58;;;1.60;;
64917;SDS011;52176;44.858;38.372;2023-02-12T10:36:50;5.30;;;1.80;;
64917;SDS011;52176;44.858;38.372;2023-02-12T10:39:24;4.15;;;1.80;;
64917;SDS011;52176;44.858;38.372;2023-02-12T10:42:10;3.08;;;1.88;;
64917;SDS011;52176;44.858;38.372;2023-02-12T10:44:47;3.20;;;1.70;;
64917;SDS011;52176;44.858;38.372;2023-02-12T10:47:14;3.22;;;1.85;;
64917;SDS011;52176;44.858;38.372;2023-02-12T10:49:44;3.80;;;1.65;;
64917;SDS011;52176;44.858;38.372;2023-02-12T10:52:35;2.28;;;1.98;;
64917;SDS011;52176;44.858;38.372;2023-02-12T10:55:23;2.83;;;1.70;;
64917;SDS011;52176;44.858;38.372;2023-02-12T10:57:49;3.38;;;1.55;;
64917;SDS011;52176;44.858;38.372;2023-02-12T11:00:33;3.53;;;1.80;;
64917;SDS011;52176;44.858;38.372;2023-02-12T11:05:36;3.28;;;1.88;;
64917;SDS011;52176;44.858;38.372;2023-02-12T11:08:03;1.75;;;1.35;;
64917;SDS011;52176;44.858;38.372;2023-02-12T11:13:03;3.90;;;1.85;;
64917;SDS011;52176;44.858;38.372;2023-02-12T11:15:37;1.75;;;1.35;;
64917;SDS011;52176;44.858;38.372;2023-02-12T11:18:25;3.53;;;1.67;;
64917;SDS011;52176;44.858;38.372;2023-02-12T11:20:59;1.73;;;1.35;;
64917;SDS011;52176;44.858;38.372;2023-02-12T11:23:31;3.00;;;1.40;;
64917;SDS011;52176;44.858;38.372;2023-02-12T11:26:08;4.22;;;2.20;;
64917;SDS011;52176;44.858;38.372;2023-02-12T11:28:53;3.00;;;2.00;;
64917;SDS011;52176;44.858;38.372;2023-02-12T11:36:44;2.80;;;1.58;;
64917;SDS011;52176;44.858;38.372;2023-02-12T11:39:26;2.25;;;1.65;;
64917;SDS011;52176;44.858;38.372;2023-02-12T11:44:36;9.30;;;2.00;;
64917;SDS011;52176;44.858;38.372;2023-02-12T11:47:05;2.28;;;1.52;;
64917;SDS011;52176;44.858;38.372;2023-02-12T11:49:39;3.97;;;1.67;;
64917;SDS011;52176;44.858;38.372;2023-02-12T11:52:07;3.92;;;2.00;;
64917;SDS011;52176;44.858;38.372;2023-02-12T11:54:46;5.00;;;1.83;;
64917;SDS011;52176;44.858;38.372;2023-02-12T12:00:18;3.58;;;1.88;;
64917;SDS011;52176;44.858;38.372;2023-02-12T12:06:25;1.70;;;1.42;;
64917;SDS011;52176;44.858;38.372;2023-02-12T12:14:13;4.85;;;1.90;;
64917;SDS011;52176;44.858;38.372;2023-02-12T12:17:03;3.92;;;2.17;;
64917;SDS011;52176;44.858;38.372;2023-02-12T12:20:09;2.10;;;1.60;;
64917;SDS011;52176;44.858;38.372;2023-02-12T12:25:29;2.28;;;1.15;;
64917;SDS011;52176;44.858;38.372;2023-02-12T12:31:06;4.55;;;1.50;;
64917;SDS011;52176;44.858;38.372;2023-02-12T12:33:43;2.42;;;1.40;;
64917;SDS011;52176;44.858;38.372;2023-02-12T12:55:35;2.75;;;1.67;;
64917;SDS011;52176;44.858;38.372;2023-02-12T12:58:11;2.92;;;1.65;;
64917;SDS011;52176;44.858;38.372;2023-02-12T13:03:47;3.10;;;1.40;;
64917;SDS011;52176;44.858;38.372;2023-02-12T13:12:07;2.05;;;1.60;;
64917;SDS011;52176;44.858;38.372;2023-02-12T13:15:02;2.03;;;1.30;;
64917;SDS011;52176;44.858;38.372;2023-02-12T13:17:52;3.70;;;1.40;;
64917;SDS011;52176;44.858;38.372;2023-02-12T13:26:31;1.90;;;1.40;;
64917;SDS011;52176;44.858;38.372;2023-02-12T13:32:12;3.70;;;1.45;;
64917;SDS011;52176;44.858;38.372;2023-02-12T13:34:48;2.28;;;1.40;;
64917;SDS011;52176;44.858;38.372;2023-02-12T13:37:18;2.65;;;1.40;;
64917;SDS011;52176;44.858;38.372;2023-02-12T13:39:48;5.03;;;2.10;;
64917;SDS011;52176;44.858;38.372;2023-02-12T13:42:21;1.90;;;1.45;;
64917;SDS011;52176;44.858;38.372;2023-02-12T13:50:39;2.90;;;1.58;;
64917;SDS011;52176;44.858;38.372;2023-02-12T13:56:16;3.72;;;1.75;;
64917;SDS011;52176;44.858;38.372;2023-02-12T13:58:53;1.90;;;1.20;;
64917;SDS011;52176;44.858;38.372;2023-02-12T14:02:02;2.28;;;1.60;;
64917;SDS011;52176;44.858;38.372;2023-02-12T14:06:52;2.30;;;1.70;;
64917;SDS011;52176;44.858;38.372;2023-02-12T14:09:23;1.90;;;1.60;;
64917;SDS011;52176;44.858;38.372;2023-02-12T14:11:56;3.78;;;1.70;;
64917;SDS011;52176;44.858;38.372;2023-02-12T14:14:29;7.22;;;1.80;;
64917;SDS011;52176;44.858;38.372;2023-02-12T14:24:58;2.25;;;1.55;;
64917;SDS011;52176;44.858;38.372;2023-02-12T14:27:49;6.05;;;2.20;;
64917;SDS011;52176;44.858;38.372;2023-02-12T14:30:36;5.18;;;1.73;;
64917;SDS011;52176;44.858;38.372;2023-02-12T14:35:35;5.78;;;2.13;;
64917;SDS011;52176;44.858;38.372;2023-02-12T14:40:43;4.93;;;2.00;;
64917;SDS011;52176;44.858;38.372;2023-02-12T14:54:27;2.72;;;1.80;;
64917;SDS011;52176;44.858;38.372;2023-02-12T14:56:54;3.50;;;1.67;;
64917;SDS011;52176;44.858;38.372;2023-02-12T14:59:25;3.10;;;2.00;;
64917;SDS011;52176;44.858;38.372;2023-02-12T15:01:57;4.97;;;2.15;;
64917;SDS011;52176;44.858;38.372;2023-02-12T15:04:30;3.45;;;2.00;;
64917;SDS011;52176;44.858;38.372;2023-02-12T15:07:06;3.83;;;2.30;;
64917;SDS011;52176;44.858;38.372;2023-02-12T15:09:51;3.00;;;2.03;;
64917;SDS011;52176;44.858;38.372;2023-02-12T15:12:26;5.15;;;2.00;;
64917;SDS011;52176;44.858;38.372;2023-02-12T15:17:39;4.82;;;2.47;;
64917;SDS011;52176;44.858;38.372;2023-02-12T15:20:15;4.78;;;2.60;;
64917;SDS011;52176;44.858;38.372;2023-02-12T15:22:45;4.97;;;2.25;;
64917;SDS011;52176;44.858;38.372;2023-02-12T15:25:15;4.00;;;2.50;;
64917;SDS011;52176;44.858;38.372;2023-02-12T15:27:46;3.90;;;2.70;;
64917;SDS011;52176;44.858;38.372;2023-02-12T15:30:17;7.93;;;2.60;;
64917;SDS011;52176;44.858;38.372;2023-02-12T15:32:46;5.45;;;2.90;;
64917;SDS011;52176;44.858;38.372;2023-02-12T15:35:23;8.13;;;2.90;;
64917;SDS011;52176;44.858;38.372;2023-02-12T15:37:53;8.73;;;2.83;;
64917;SDS011;52176;44.858;38.372;2023-02-12T15:40:20;5.80;;;2.60;;
64917;SDS011;52176;44.858;38.372;2023-02-12T15:43:03;6.28;;;3.25;;
64917;SDS011;52176;44.858;38.372;2023-02-12T15:45:32;6.40;;;3.08;;
64917;SDS011;52176;44.858;38.372;2023-02-12T15:48:10;7.70;;;2.85;;
64917;SDS011;52176;44.858;38.372;2023-02-12T15:53:17;5.93;;;3.30;;
64917;SDS011;52176;44.858;38.372;2023-02-12T15:55:45;8.55;;;3.28;;
64917;SDS011;52176;44.858;38.372;2023-02-12T15:58:31;11.18;;;3.75;;
64917;SDS011;52176;44.858;38.372;2023-02-12T16:01:15;5.93;;;3.33;;
64917;SDS011;52176;44.858;38.372;2023-02-12T16:03:53;8.45;;;3.97;;
64917;SDS011;52176;44.858;38.372;2023-02-12T16:06:22;9.55;;;3.33;;
64917;SDS011;52176;44.858;38.372;2023-02-12T16:13:51;5.25;;;3.05;;
64917;SDS011;52176;44.858;38.372;2023-02-12T16:21:53;4.57;;;2.80;;
64917;SDS011;52176;44.858;38.372;2023-02-12T16:27:00;3.63;;;2.63;;
64917;SDS011;52176;44.858;38.372;2023-02-12T16:29:43;5.35;;;2.78;;
64917;SDS011;52176;44.858;38.372;2023-02-12T16:40:35;4.75;;;2.72;;
64917;SDS011;52176;44.858;38.372;2023-02-12T16:43:00;3.53;;;2.40;;
64917;SDS011;52176;44.858;38.372;2023-02-12T16:45:47;4.47;;;2.70;;
64917;SDS011;52176;44.858;38.372;2023-02-12T16:48:15;5.57;;;2.50;;
64917;SDS011;52176;44.858;38.372;2023-02-12T16:50:49;5.10;;;3.10;;
64917;SDS011;52176;44.858;38.372;2023-02-12T16:53:25;4.45;;;3.13;;
64917;SDS011;52176;44.858;38.372;2023-02-12T16:56:00;6.47;;;3.30;;
64917;SDS011;52176;44.858;38.372;2023-02-12T16:58:28;6.30;;;3.67;;
64917;SDS011;52176;44.858;38.372;2023-02-12T17:00:55;8.80;;;4.15;;
64917;SDS011;52176;44.858;38.372;2023-02-12T17:03:22;10.10;;;4.50;;
64917;SDS011;52176;44.858;38.372;2023-02-12T17:05:49;7.78;;;5.05;;
64917;SDS011;52176;44.858;38.372;2023-02-12T17:08:17;9.60;;;5.35;;
64917;SDS011;52176;44.858;38.372;2023-02-12T17:10:45;10.20;;;6.38;;
64917;SDS011;52176;44.858;38.372;2023-02-12T17:13:13;14.13;;;8.27;;
64917;SDS011;52176;44.858;38.372;2023-02-12T17:16:01;13.93;;;8.27;;
64917;SDS011;52176;44.858;38.372;2023-02-12T17:18:26;22.10;;;10.38;;
64917;SDS011;52176;44.858;38.372;2023-02-12T17:20:56;17.33;;;9.55;;
64917;SDS011;52176;44.858;38.372;2023-02-12T17:23:25;21.60;;;11.13;;
64917;SDS011;52176;44.858;38.372;2023-02-12T17:25:52;19.52;;;10.30;;
64917;SDS011;52176;44.858;38.372;2023-02-12T17:28:18;23.15;;;11.88;;
64917;SDS011;52176;44.858;38.372;2023-02-12T17:30:45;19.23;;;9.98;;
64917;SDS011;52176;44.858;38.372;2023-02-12T17:33:11;20.52;;;10.93;;
64917;SDS011;52176;44.858;38.372;2023-02-12T17:35:37;22.83;;;12.57;;
64917;SDS011;52176;44.858;38.372;2023-02-12T17:38:04;23.35;;;12.23;;
64917;SDS011;52176;44.858;38.372;2023-02-12T17:40:30;21.73;;;11.20;;
64917;SDS011;52176;44.858;38.372;2023-02-12T17:42:56;21.05;;;11.57;;
64917;SDS011;52176;44.858;38.372;2023-02-12T17:45:24;22.42;;;11.82;;
64917;SDS011;52176;44.858;38.372;2023-02-12T17:47:50;22.83;;;11.38;;
64917;SDS011;52176;44.858;38.372;2023-02-12T17:50:17;19.50;;;11.23;;
64917;SDS011;52176;44.858;38.372;2023-02-12T17:52:43;22.67;;;12.15;;
64917;SDS011;52176;44.858;38.372;2023-02-12T17:55:09;19.58;;;11.13;;
64917;SDS011;52176;44.858;38.372;2023-02-12T17:57:38;21.02;;;12.25;;
64917;SDS011;52176;44.858;38.372;2023-02-12T18:00:05;22.65;;;10.25;;
64917;SDS011;52176;44.858;38.372;2023-02-12T18:02:36;19.08;;;10.50;;
64917;SDS011;52176;44.858;38.372;2023-02-12T18:05:02;25.08;;;11.63;;
64917;SDS011;52176;44.858;38.372;2023-02-12T18:07:30;24.65;;;11.68;;
64917;SDS011;52176;44.858;38.372;2023-02-12T18:09:57;21.27;;;11.90;;
64917;SDS011;52176;44.858;38.372;2023-02-12T18:12:23;20.60;;;10.93;;
64917;SDS011;52176;44.858;38.372;2023-02-12T18:14:49;19.27;;;11.23;;